Terminal Aerodrome Forecast
Issued by NWS

Home | Current Version | Previous Version | Text Only | Print | Product List | Glossary On
Versions: 1 2 3 4 5 6 7 8 9 10 11 12 13 14 15 16 17 18 19 20 21 22 23 24 25
000
FTAK31 PAJN 191451 AAA
TAFAYA
TAF AMD
PAYA 191451Z 1915/2012 10010KT 5SM -SHRA BR FEW006 SCT010 OVC025
      WS020/14040KT
      TEMPO 1915/1919 2SM +SHRA SCT006 OVC010
     FM192000 11008KT P6SM VCSH SCT020 BKN030 OVC040
      AMD LTD TO CLD VIS AND WIND=

USA.gov is the U.S. government's official web portal to all federal, state and local government web resources and services.